sensor_id;sensor_type;location;lat;lon;timestamp;temperature;humidity
55648;DHT22;45266;48.756;9.246;2023-03-01T00:00:35;-2.80;99.90
55648;DHT22;45266;48.756;9.246;2023-03-01T00:01:37;-2.80;99.90
55648;DHT22;45266;48.756;9.246;2023-03-01T00:02:39;-2.80;99.90
55648;DHT22;45266;48.756;9.246;2023-03-01T00:03:42;-2.80;99.90
55648;DHT22;45266;48.756;9.246;2023-03-01T00:04:44;-2.80;99.90
55648;DHT22;45266;48.756;9.246;2023-03-01T00:05:47;-2.90;99.90
55648;DHT22;45266;48.756;9.246;2023-03-01T00:06:48;-2.80;99.90
55648;DHT22;45266;48.756;9.246;2023-03-01T00:07:53;-2.80;99.90
55648;DHT22;45266;48.756;9.246;2023-03-01T00:08:55;-2.80;99.90
55648;DHT22;45266;48.756;9.246;2023-03-01T00:09:57;-2.80;99.90
55648;DHT22;45266;48.756;9.246;2023-03-01T00:11:08;-2.90;99.90
55648;DHT22;45266;48.756;9.246;2023-03-01T00:12:11;-2.90;99.90
55648;DHT22;45266;48.756;9.246;2023-03-01T00:13:13;-2.90;99.90
55648;DHT22;45266;48.756;9.246;2023-03-01T00:14:15;-2.90;99.90
55648;DHT22;45266;48.756;9.246;2023-03-01T00:15:18;-2.90;99.90
55648;DHT22;45266;48.756;9.246;2023-03-01T00:16:26;-2.90;99.90
55648;DHT22;45266;48.756;9.246;2023-03-01T00:17:30;-2.90;99.90
55648;DHT22;45266;48.756;9.246;2023-03-01T00:18:31;-2.90;99.90
55648;DHT22;45266;48.756;9.246;2023-03-01T00:19:33;-2.90;99.90
55648;DHT22;45266;48.756;9.246;2023-03-01T00:20:35;-2.90;99.90
55648;DHT22;45266;48.756;9.246;2023-03-01T00:21:37;-2.90;99.90
55648;DHT22;45266;48.756;9.246;2023-03-01T00:22:39;-2.90;99.90
55648;DHT22;45266;48.756;9.246;2023-03-01T00:23:41;-2.90;99.90
55648;DHT22;45266;48.756;9.246;2023-03-01T00:24:42;-2.90;99.90
55648;DHT22;45266;48.756;9.246;2023-03-01T00:25:44;-2.90;99.90
55648;DHT22;45266;48.756;9.246;2023-03-01T00:26:46;-2.90;99.90
55648;DHT22;45266;48.756;9.246;2023-03-01T00:27:48;-3.00;99.90
55648;DHT22;45266;48.756;9.246;2023-03-01T00:28:51;-3.00;99.90
55648;DHT22;45266;48.756;9.246;2023-03-01T00:29:53;-3.00;99.90
55648;DHT22;45266;48.756;9.246;2023-03-01T00:30:54;-3.00;99.90
55648;DHT22;45266;48.756;9.246;2023-03-01T00:31:56;-3.00;99.90
55648;DHT22;45266;48.756;9.246;2023-03-01T00:32:58;-3.00;99.90
55648;DHT22;45266;48.756;9.246;2023-03-01T00:34:02;-3.00;99.90
55648;DHT22;45266;48.756;9.246;2023-03-01T00:35:04;-3.00;99.90
55648;DHT22;45266;48.756;9.246;2023-03-01T00:36:08;-3.00;99.90
55648;DHT22;45266;48.756;9.246;2023-03-01T00:37:10;-3.00;99.90
55648;DHT22;45266;48.756;9.246;2023-03-01T00:38:12;-3.00;99.90
55648;DHT22;45266;48.756;9.246;2023-03-01T00:39:15;-3.10;99.90
55648;DHT22;45266;48.756;9.246;2023-03-01T00:40:16;-3.10;99.90
55648;DHT22;45266;48.756;9.246;2023-03-01T00:41:19;-3.10;99.90
55648;DHT22;45266;48.756;9.246;2023-03-01T00:42:21;-3.00;99.90
55648;DHT22;45266;48.756;9.246;2023-03-01T00:43:23;-3.10;99.90
55648;DHT22;45266;48.756;9.246;2023-03-01T00:44:25;-3.10;99.90
55648;DHT22;45266;48.756;9.246;2023-03-01T00:45:27;-3.10;99.90
55648;DHT22;45266;48.756;9.246;2023-03-01T00:46:29;-3.10;99.90
55648;DHT22;45266;48.756;9.246;2023-03-01T00:47:34;-3.10;99.90
55648;DHT22;45266;48.756;9.246;2023-03-01T00:48:36;-3.10;99.90
55648;DHT22;45266;48.756;9.246;2023-03-01T00:49:38;-3.10;99.90
55648;DHT22;45266;48.756;9.246;2023-03-01T00:50:40;-3.10;99.90
55648;DHT22;45266;48.756;9.246;2023-03-01T00:51:42;-3.10;99.90
55648;DHT22;45266;48.756;9.246;2023-03-01T00:52:44;-3.10;99.90
55648;DHT22;45266;48.756;9.246;2023-03-01T00:53:47;-3.10;99.90
55648;DHT22;45266;48.756;9.246;2023-03-01T00:54:52;-3.10;99.90
55648;DHT22;45266;48.756;9.246;2023-03-01T00:55:57;-3.10;99.90
55648;DHT22;45266;48.756;9.246;2023-03-01T00:56:59;-3.10;99.90
55648;DHT22;45266;48.756;9.246;2023-03-01T00:58:01;-3.10;99.90
55648;DHT22;45266;48.756;9.246;2023-03-01T00:59:03;-3.10;99.90
55648;DHT22;45266;48.756;9.246;2023-03-01T01:00:06;-3.10;99.90
55648;DHT22;45266;48.756;9.246;2023-03-01T01:01:20;-3.20;99.90
55648;DHT22;45266;48.756;9.246;2023-03-01T01:02:23;-3.20;99.90
55648;DHT22;45266;48.756;9.246;2023-03-01T01:03:25;-3.20;99.90
55648;DHT22;45266;48.756;9.246;2023-03-01T01:04:26;-3.20;99.90
55648;DHT22;45266;48.756;9.246;2023-03-01T01:05:28;-3.20;99.90
55648;DHT22;45266;48.756;9.246;2023-03-01T01:06:35;-3.30;99.90
55648;DHT22;45266;48.756;9.246;2023-03-01T01:07:37;-3.30;99.90
55648;DHT22;45266;48.756;9.246;2023-03-01T01:08:39;-3.30;99.90
55648;DHT22;45266;48.756;9.246;2023-03-01T01:09:41;-3.30;99.90
55648;DHT22;45266;48.756;9.246;2023-03-01T01:10:44;-3.30;99.90
55648;DHT22;45266;48.756;9.246;2023-03-01T01:11:50;-3.30;99.90
55648;DHT22;45266;48.756;9.246;2023-03-01T01:12:52;-3.30;99.90
55648;DHT22;45266;48.756;9.246;2023-03-01T01:13:54;-3.30;99.90
55648;DHT22;45266;48.756;9.246;2023-03-01T01:14:56;-3.30;99.90
55648;DHT22;45266;48.756;9.246;2023-03-01T01:16:02;-3.30;99.90
55648;DHT22;45266;48.756;9.246;2023-03-01T01:17:04;-3.30;99.90
55648;DHT22;45266;48.756;9.246;2023-03-01T01:18:06;-3.30;99.90
55648;DHT22;45266;48.756;9.246;2023-03-01T01:19:10;-3.30;99.90
55648;DHT22;45266;48.756;9.246;2023-03-01T01:20:12;-3.30;99.90
55648;DHT22;45266;48.756;9.246;2023-03-01T01:21:16;-3.30;99.90
55648;DHT22;45266;48.756;9.246;2023-03-01T01:22:18;-3.30;99.90
55648;DHT22;45266;48.756;9.246;2023-03-01T01:23:20;-3.30;99.90
55648;DHT22;45266;48.756;9.246;2023-03-01T01:24:22;-3.30;99.90
55648;DHT22;45266;48.756;9.246;2023-03-01T01:25:24;-3.30;99.90
55648;DHT22;45266;48.756;9.246;2023-03-01T01:26:30;-3.30;99.90
55648;DHT22;45266;48.756;9.246;2023-03-01T01:27:33;-3.30;99.90
55648;DHT22;45266;48.756;9.246;2023-03-01T01:28:35;-3.30;99.90
55648;DHT22;45266;48.756;9.246;2023-03-01T01:29:37;-3.30;99.90
55648;DHT22;45266;48.756;9.246;2023-03-01T01:30:39;-3.30;99.90
55648;DHT22;45266;48.756;9.246;2023-03-01T01:31:42;-3.30;99.90
55648;DHT22;45266;48.756;9.246;2023-03-01T01:32:44;-3.30;99.90
55648;DHT22;45266;48.756;9.246;2023-03-01T01:33:46;-3.30;99.90
55648;DHT22;45266;48.756;9.246;2023-03-01T01:34:48;-3.30;99.90
55648;DHT22;45266;48.756;9.246;2023-03-01T01:35:50;-3.40;99.90
55648;DHT22;45266;48.756;9.246;2023-03-01T01:36:52;-3.40;99.90
55648;DHT22;45266;48.756;9.246;2023-03-01T01:37:57;-3.40;99.90
55648;DHT22;45266;48.756;9.246;2023-03-01T01:39:00;-3.40;99.90
55648;DHT22;45266;48.756;9.246;2023-03-01T01:40:02;-3.40;99.90
55648;DHT22;45266;48.756;9.246;2023-03-01T01:41:09;-3.40;99.90
55648;DHT22;45266;48.756;9.246;2023-03-01T01:42:16;-3.40;99.90
55648;DHT22;45266;48.756;9.246;2023-03-01T01:43:39;-3.40;99.90
55648;DHT22;45266;48.756;9.246;2023-03-01T01:44:48;-3.40;99.90
55648;DHT22;45266;48.756;9.246;2023-03-01T01:47:18;-3.40;99.90
55648;DHT22;45266;48.756;9.246;2023-03-01T01:48:24;-3.40;99.90
55648;DHT22;45266;48.756;9.246;2023-03-01T01:49:38;-3.40;99.90
55648;DHT22;45266;48.756;9.246;2023-03-01T01:50:41;-3.30;99.90
55648;DHT22;45266;48.756;9.246;2023-03-01T01:51:45;-3.30;99.90
55648;DHT22;45266;48.756;9.246;2023-03-01T01:52:50;-3.30;99.90
55648;DHT22;45266;48.756;9.246;2023-03-01T01:53:59;-3.30;99.90
55648;DHT22;45266;48.756;9.246;2023-03-01T01:55:06;-3.30;99.90
55648;DHT22;45266;48.756;9.246;2023-03-01T01:56:13;-3.30;99.90
55648;DHT22;45266;48.756;9.246;2023-03-01T01:57:20;-3.20;99.90
55648;DHT22;45266;48.756;9.246;2023-03-01T01:58:24;-3.20;99.90
55648;DHT22;45266;48.756;9.246;2023-03-01T01:59:27;-3.20;99.90
55648;DHT22;45266;48.756;9.246;2023-03-01T02:00:30;-3.10;99.90
55648;DHT22;45266;48.756;9.246;2023-03-01T02:01:32;-3.10;99.90
55648;DHT22;45266;48.756;9.246;2023-03-01T02:02:34;-3.10;99.90
55648;DHT22;45266;48.756;9.246;2023-03-01T02:03:38;-3.00;99.90
55648;DHT22;45266;48.756;9.246;2023-03-01T02:04:43;-3.00;99.90
55648;DHT22;45266;48.756;9.246;2023-03-01T02:06:07;-3.00;99.90
55648;DHT22;45266;48.756;9.246;2023-03-01T02:07:19;-2.90;99.90
55648;DHT22;45266;48.756;9.246;2023-03-01T02:08:24;-2.90;99.90
55648;DHT22;45266;48.756;9.246;2023-03-01T02:09:27;-2.90;99.90
55648;DHT22;45266;48.756;9.246;2023-03-01T02:10:29;-2.90;99.90
55648;DHT22;45266;48.756;9.246;2023-03-01T02:11:34;-2.80;99.90
55648;DHT22;45266;48.756;9.246;2023-03-01T02:12:39;-2.80;99.90
55648;DHT22;45266;48.756;9.246;2023-03-01T02:13:41;-2.80;99.90
55648;DHT22;45266;48.756;9.246;2023-03-01T02:14:44;-2.70;99.90
55648;DHT22;45266;48.756;9.246;2023-03-01T02:15:46;-2.70;99.90
55648;DHT22;45266;48.756;9.246;2023-03-01T02:16:48;-2.70;99.90
55648;DHT22;45266;48.756;9.246;2023-03-01T02:17:50;-2.70;99.90
55648;DHT22;45266;48.756;9.246;2023-03-01T02:18:52;-2.60;99.90
55648;DHT22;45266;48.756;9.246;2023-03-01T02:21:51;-2.50;99.90
55648;DHT22;45266;48.756;9.246;2023-03-01T02:22:56;-2.50;99.90
55648;DHT22;45266;48.756;9.246;2023-03-01T02:24:53;-2.50;99.90
55648;DHT22;45266;48.756;9.246;2023-03-01T02:25:27;-2.50;99.90
55648;DHT22;45266;48.756;9.246;2023-03-01T02:26:41;-2.40;99.90
55648;DHT22;45266;48.756;9.246;2023-03-01T02:28:55;-2.40;99.90
55648;DHT22;45266;48.756;9.246;2023-03-01T02:29:57;-2.40;99.90
55648;DHT22;45266;48.756;9.246;2023-03-01T02:30:59;-2.40;99.90
55648;DHT22;45266;48.756;9.246;2023-03-01T02:32:20;-2.30;99.90
55648;DHT22;45266;48.756;9.246;2023-03-01T02:33:27;-2.30;99.90
55648;DHT22;45266;48.756;9.246;2023-03-01T02:34:30;-2.30;99.90
55648;DHT22;45266;48.756;9.246;2023-03-01T02:35:36;-2.20;99.90
55648;DHT22;45266;48.756;9.246;2023-03-01T02:36:42;-2.30;99.90
55648;DHT22;45266;48.756;9.246;2023-03-01T02:37:46;-2.20;99.90
55648;DHT22;45266;48.756;9.246;2023-03-01T02:38:52;-2.20;99.90
55648;DHT22;45266;48.756;9.246;2023-03-01T02:39:58;-2.20;99.90
55648;DHT22;45266;48.756;9.246;2023-03-01T02:41:02;-2.20;99.90
55648;DHT22;45266;48.756;9.246;2023-03-01T02:42:06;-2.20;99.90
55648;DHT22;45266;48.756;9.246;2023-03-01T02:43:10;-2.20;99.90
55648;DHT22;45266;48.756;9.246;2023-03-01T02:44:14;-2.20;99.90
55648;DHT22;45266;48.756;9.246;2023-03-01T02:45:16;-2.20;99.90
55648;DHT22;45266;48.756;9.246;2023-03-01T02:46:21;-2.20;99.90
55648;DHT22;45266;48.756;9.246;2023-03-01T02:47:23;-2.20;99.90
55648;DHT22;45266;48.756;9.246;2023-03-01T02:48:25;-2.20;99.90
55648;DHT22;45266;48.756;9.246;2023-03-01T02:49:33;-2.10;99.90
55648;DHT22;45266;48.756;9.246;2023-03-01T02:52:17;-2.10;99.90
55648;DHT22;45266;48.756;9.246;2023-03-01T02:53:29;-2.10;99.90
55648;DHT22;45266;48.756;9.246;2023-03-01T02:54:36;-2.10;99.90
55648;DHT22;45266;48.756;9.246;2023-03-01T02:55:40;-2.10;99.90
55648;DHT22;45266;48.756;9.246;2023-03-01T02:56:43;-2.10;99.90
55648;DHT22;45266;48.756;9.246;2023-03-01T02:57:47;-2.00;99.90
55648;DHT22;45266;48.756;9.246;2023-03-01T02:58:52;-2.10;99.90
55648;DHT22;45266;48.756;9.246;2023-03-01T02:59:59;-2.10;99.90
55648;DHT22;45266;48.756;9.246;2023-03-01T03:01:03;-2.00;99.90
55648;DHT22;45266;48.756;9.246;2023-03-01T03:02:18;-2.00;99.90
55648;DHT22;45266;48.756;9.246;2023-03-01T03:03:37;-1.90;99.90
55648;DHT22;45266;48.756;9.246;2023-03-01T03:04:39;-1.90;99.90
55648;DHT22;45266;48.756;9.246;2023-03-01T03:05:40;-1.90;99.90
55648;DHT22;45266;48.756;9.246;2023-03-01T03:06:47;-1.90;99.90
55648;DHT22;45266;48.756;9.246;2023-03-01T03:07:49;-1.90;99.90
55648;DHT22;45266;48.756;9.246;2023-03-01T03:08:51;-1.90;99.90
55648;DHT22;45266;48.756;9.246;2023-03-01T03:09:53;-1.90;99.90
55648;DHT22;45266;48.756;9.246;2023-03-01T03:10:55;-1.90;99.90
55648;DHT22;45266;48.756;9.246;2023-03-01T03:11:57;-1.80;99.90
55648;DHT22;45266;48.756;9.246;2023-03-01T03:13:10;-1.80;99.90
55648;DHT22;45266;48.756;9.246;2023-03-01T03:14:14;-1.80;99.90
55648;DHT22;45266;48.756;9.246;2023-03-01T03:15:17;-1.80;99.90
55648;DHT22;45266;48.756;9.246;2023-03-01T03:16:19;-1.80;99.90
55648;DHT22;45266;48.756;9.246;2023-03-01T03:17:21;-1.80;99.90
55648;DHT22;45266;48.756;9.246;2023-03-01T03:18:24;-1.80;99.90
55648;DHT22;45266;48.756;9.246;2023-03-01T03:19:29;-1.80;99.90
55648;DHT22;45266;48.756;9.246;2023-03-01T03:20:31;-1.80;99.90
55648;DHT22;45266;48.756;9.246;2023-03-01T03:21:33;-1.80;99.90
55648;DHT22;45266;48.756;9.246;2023-03-01T03:22:35;-1.80;99.90
55648;DHT22;45266;48.756;9.246;2023-03-01T03:23:38;-1.80;99.90
55648;DHT22;45266;48.756;9.246;2023-03-01T03:24:39;-1.80;99.90
55648;DHT22;45266;48.756;9.246;2023-03-01T03:25:41;-1.70;99.90
55648;DHT22;45266;48.756;9.246;2023-03-01T03:26:43;-1.70;99.90
55648;DHT22;45266;48.756;9.246;2023-03-01T03:27:47;-1.70;99.90
55648;DHT22;45266;48.756;9.246;2023-03-01T03:28:49;-1.70;99.90
55648;DHT22;45266;48.756;9.246;2023-03-01T03:29:51;-1.70;99.90
55648;DHT22;45266;48.756;9.246;2023-03-01T03:30:53;-1.70;99.90
55648;DHT22;45266;48.756;9.246;2023-03-01T03:31:54;-1.70;99.90
55648;DHT22;45266;48.756;9.246;2023-03-01T03:32:57;-1.70;99.90
55648;DHT22;45266;48.756;9.246;2023-03-01T03:33:59;-1.70;99.90
55648;DHT22;45266;48.756;9.246;2023-03-01T03:35:02;-1.70;99.90
55648;DHT22;45266;48.756;9.246;2023-03-01T03:36:15;-1.70;99.90
55648;DHT22;45266;48.756;9.246;2023-03-01T03:37:19;-1.70;99.90
55648;DHT22;45266;48.756;9.246;2023-03-01T03:38:39;-1.70;99.90
55648;DHT22;45266;48.756;9.246;2023-03-01T03:39:41;-1.70;99.90
55648;DHT22;45266;48.756;9.246;2023-03-01T03:40:49;-1.60;99.90
55648;DHT22;45266;48.756;9.246;2023-03-01T03:41:51;-1.60;99.90
55648;DHT22;45266;48.756;9.246;2023-03-01T03:42:52;-1.60;99.90
55648;DHT22;45266;48.756;9.246;2023-03-01T03:43:54;-1.60;99.90
55648;DHT22;45266;48.756;9.246;2023-03-01T03:44:56;-1.60;99.90
55648;DHT22;45266;48.756;9.246;2023-03-01T03:45:58;-1.60;99.90
55648;DHT22;45266;48.756;9.246;2023-03-01T03:47:00;-1.50;99.90
55648;DHT22;45266;48.756;9.246;2023-03-01T03:48:03;-1.50;99.90
55648;DHT22;45266;48.756;9.246;2023-03-01T03:49:06;-1.50;99.90
55648;DHT22;45266;48.756;9.246;2023-03-01T03:50:09;-1.50;99.90
55648;DHT22;45266;48.756;9.246;2023-03-01T03:51:13;-1.50;99.90
55648;DHT22;45266;48.756;9.246;2023-03-01T03:52:15;-1.50;99.90
55648;DHT22;45266;48.756;9.246;2023-03-01T03:53:17;-1.50;99.90
55648;DHT22;45266;48.756;9.246;2023-03-01T03:54:18;-1.40;99.90
55648;DHT22;45266;48.756;9.246;2023-03-01T03:55:20;-1.40;99.90
55648;DHT22;45266;48.756;9.246;2023-03-01T03:56:22;-1.50;99.90
55648;DHT22;45266;48.756;9.246;2023-03-01T03:57:29;-1.40;99.90
55648;DHT22;45266;48.756;9.246;2023-03-01T03:58:31;-1.40;99.90
55648;DHT22;45266;48.756;9.246;2023-03-01T03:59:33;-1.40;99.90
55648;DHT22;45266;48.756;9.246;2023-03-01T04:00:40;-1.40;99.90
55648;DHT22;45266;48.756;9.246;2023-03-01T04:01:42;-1.40;99.90
55648;DHT22;45266;48.756;9.246;2023-03-01T04:02:47;-1.40;99.90
55648;DHT22;45266;48.756;9.246;2023-03-01T04:03:49;-1.40;99.90
55648;DHT22;45266;48.756;9.246;2023-03-01T04:04:55;-1.30;99.90
55648;DHT22;45266;48.756;9.246;2023-03-01T04:05:59;-1.30;99.90
55648;DHT22;45266;48.756;9.246;2023-03-01T04:07:01;-1.30;99.90
55648;DHT22;45266;48.756;9.246;2023-03-01T04:08:03;-1.30;99.90
55648;DHT22;45266;48.756;9.246;2023-03-01T04:09:08;-1.30;99.90
55648;DHT22;45266;48.756;9.246;2023-03-01T04:10:15;-1.30;99.90
55648;DHT22;45266;48.756;9.246;2023-03-01T04:11:17;-1.30;99.90
55648;DHT22;45266;48.756;9.246;2023-03-01T04:12:28;-1.30;99.90
55648;DHT22;45266;48.756;9.246;2023-03-01T04:13:30;-1.30;99.90
55648;DHT22;45266;48.756;9.246;2023-03-01T04:14:32;-1.20;99.90
55648;DHT22;45266;48.756;9.246;2023-03-01T04:15:35;-1.20;99.90
55648;DHT22;45266;48.756;9.246;2023-03-01T04:16:37;-1.20;99.90
55648;DHT22;45266;48.756;9.246;2023-03-01T04:17:43;-1.30;99.90
55648;DHT22;45266;48.756;9.246;2023-03-01T04:18:45;-1.30;99.90
55648;DHT22;45266;48.756;9.246;2023-03-01T04:19:47;-1.20;99.90
55648;DHT22;45266;48.756;9.246;2023-03-01T04:20:50;-1.20;99.90
55648;DHT22;45266;48.756;9.246;2023-03-01T04:21:53;-1.30;99.90
55648;DHT22;45266;48.756;9.246;2023-03-01T04:23:07;-1.20;99.90
55648;DHT22;45266;48.756;9.246;2023-03-01T04:24:12;-1.20;99.90
55648;DHT22;45266;48.756;9.246;2023-03-01T04:25:14;-1.20;99.90
55648;DHT22;45266;48.756;9.246;2023-03-01T04:26:16;-1.20;99.90
55648;DHT22;45266;48.756;9.246;2023-03-01T04:27:17;-1.20;99.90
55648;DHT22;45266;48.756;9.246;2023-03-01T04:28:21;-1.10;99.90
55648;DHT22;45266;48.756;9.246;2023-03-01T04:29:23;-1.10;99.90
55648;DHT22;45266;48.756;9.246;2023-03-01T04:30:24;-1.20;99.90
55648;DHT22;45266;48.756;9.246;2023-03-01T04:31:26;-1.10;99.90
55648;DHT22;45266;48.756;9.246;2023-03-01T04:32:28;-1.10;99.90
55648;DHT22;45266;48.756;9.246;2023-03-01T04:33:30;-1.10;99.90
55648;DHT22;45266;48.756;9.246;2023-03-01T04:34:32;-1.10;99.90
55648;DHT22;45266;48.756;9.246;2023-03-01T04:35:34;-1.10;99.90
55648;DHT22;45266;48.756;9.246;2023-03-01T04:36:37;-1.10;99.90
55648;DHT22;45266;48.756;9.246;2023-03-01T04:37:41;-1.10;99.90
55648;DHT22;45266;48.756;9.246;2023-03-01T04:38:43;-1.10;99.90
55648;DHT22;45266;48.756;9.246;2023-03-01T04:39:48;-1.10;99.90
55648;DHT22;45266;48.756;9.246;2023-03-01T04:40:50;-1.10;99.90
55648;DHT22;45266;48.756;9.246;2023-03-01T04:41:52;-1.10;99.90
55648;DHT22;45266;48.756;9.246;2023-03-01T04:42:54;-1.10;99.90
55648;DHT22;45266;48.756;9.246;2023-03-01T04:43:55;-1.20;99.90
55648;DHT22;45266;48.756;9.246;2023-03-01T04:44:57;-1.20;99.90
55648;DHT22;45266;48.756;9.246;2023-03-01T04:46:19;-1.10;99.90
55648;DHT22;45266;48.756;9.246;2023-03-01T04:47:21;-1.10;99.90
55648;DHT22;45266;48.756;9.246;2023-03-01T04:48:23;-1.10;99.90
55648;DHT22;45266;48.756;9.246;2023-03-01T04:49:25;-1.10;99.90
55648;DHT22;45266;48.756;9.246;2023-03-01T04:50:27;-1.10;99.90
55648;DHT22;45266;48.756;9.246;2023-03-01T04:51:29;-1.10;99.90
55648;DHT22;45266;48.756;9.246;2023-03-01T04:52:30;-1.10;99.90
55648;DHT22;45266;48.756;9.246;2023-03-01T04:53:34;-1.10;99.90
55648;DHT22;45266;48.756;9.246;2023-03-01T04:54:37;-1.10;99.90
55648;DHT22;45266;48.756;9.246;2023-03-01T04:55:39;-1.10;99.90
55648;DHT22;45266;48.756;9.246;2023-03-01T04:56:41;-1.10;99.90
55648;DHT22;45266;48.756;9.246;2023-03-01T04:57:43;-1.10;99.90
55648;DHT22;45266;48.756;9.246;2023-03-01T04:58:45;-1.10;99.90
55648;DHT22;45266;48.756;9.246;2023-03-01T04:59:47;-1.10;99.90
55648;DHT22;45266;48.756;9.246;2023-03-01T05:00:49;-1.10;99.90
55648;DHT22;45266;48.756;9.246;2023-03-01T05:01:51;-1.10;99.90
55648;DHT22;45266;48.756;9.246;2023-03-01T05:02:55;-1.10;99.90
55648;DHT22;45266;48.756;9.246;2023-03-01T05:03:57;-1.10;99.90
55648;DHT22;45266;48.756;9.246;2023-03-01T05:05:04;-1.10;99.90
55648;DHT22;45266;48.756;9.246;2023-03-01T05:06:07;-1.10;99.90
55648;DHT22;45266;48.756;9.246;2023-03-01T05:07:09;-1.10;99.90
55648;DHT22;45266;48.756;9.246;2023-03-01T05:08:11;-1.10;99.90
55648;DHT22;45266;48.756;9.246;2023-03-01T05:09:18;-1.10;99.90
55648;DHT22;45266;48.756;9.246;2023-03-01T05:10:20;-1.10;99.90
55648;DHT22;45266;48.756;9.246;2023-03-01T05:11:22;-1.10;99.90
55648;DHT22;45266;48.756;9.246;2023-03-01T05:12:24;-1.10;99.90
55648;DHT22;45266;48.756;9.246;2023-03-01T05:13:26;-1.00;99.90
55648;DHT22;45266;48.756;9.246;2023-03-01T05:14:30;-1.10;99.90
55648;DHT22;45266;48.756;9.246;2023-03-01T05:15:32;-1.00;99.90
55648;DHT22;45266;48.756;9.246;2023-03-01T05:16:35;-1.10;99.90
55648;DHT22;45266;48.756;9.246;2023-03-01T05:17:38;-1.00;99.90
55648;DHT22;45266;48.756;9.246;2023-03-01T05:18:40;-1.00;99.90
55648;DHT22;45266;48.756;9.246;2023-03-01T05:19:42;-1.00;99.90
55648;DHT22;45266;48.756;9.246;2023-03-01T05:20:44;-0.90;99.90
55648;DHT22;45266;48.756;9.246;2023-03-01T05:21:46;-0.90;99.90
55648;DHT22;45266;48.756;9.246;2023-03-01T05:23:04;-0.90;99.90
55648;DHT22;45266;48.756;9.246;2023-03-01T05:24:07;-0.90;99.90
55648;DHT22;45266;48.756;9.246;2023-03-01T05:25:13;-0.80;99.90
55648;DHT22;45266;48.756;9.246;2023-03-01T05:26:17;-0.80;99.90
55648;DHT22;45266;48.756;9.246;2023-03-01T05:27:29;-0.80;99.90
55648;DHT22;45266;48.756;9.246;2023-03-01T05:28:32;-0.80;99.90
55648;DHT22;45266;48.756;9.246;2023-03-01T05:29:34;-0.80;99.90
55648;DHT22;45266;48.756;9.246;2023-03-01T05:30:36;-0.80;99.90
55648;DHT22;45266;48.756;9.246;2023-03-01T05:31:40;-0.70;99.90
55648;DHT22;45266;48.756;9.246;2023-03-01T05:32:47;-0.70;99.90
55648;DHT22;45266;48.756;9.246;2023-03-01T05:33:49;-0.70;99.90
55648;DHT22;45266;48.756;9.246;2023-03-01T05:34:51;-0.70;99.90
55648;DHT22;45266;48.756;9.246;2023-03-01T05:35:53;-0.70;99.90
55648;DHT22;45266;48.756;9.246;2023-03-01T05:36:55;-0.70;99.90
55648;DHT22;45266;48.756;9.246;2023-03-01T05:37:58;-0.70;99.90
55648;DHT22;45266;48.756;9.246;2023-03-01T05:38:59;-0.70;99.90
55648;DHT22;45266;48.756;9.246;2023-03-01T05:40:01;-0.70;99.90
55648;DHT22;45266;48.756;9.246;2023-03-01T05:41:04;-0.70;99.90
55648;DHT22;45266;48.756;9.246;2023-03-01T05:42:06;-0.60;99.90
55648;DHT22;45266;48.756;9.246;2023-03-01T05:43:11;-0.60;99.90
55648;DHT22;45266;48.756;9.246;2023-03-01T05:44:13;-0.60;99.90
55648;DHT22;45266;48.756;9.246;2023-03-01T05:45:16;-0.60;99.90
55648;DHT22;45266;48.756;9.246;2023-03-01T05:46:18;-0.60;99.90
55648;DHT22;45266;48.756;9.246;2023-03-01T05:47:20;-0.60;99.90
55648;DHT22;45266;48.756;9.246;2023-03-01T05:48:22;-0.60;99.90
55648;DHT22;45266;48.756;9.246;2023-03-01T05:49:24;-0.60;99.90
55648;DHT22;45266;48.756;9.246;2023-03-01T05:50:28;-0.60;99.90
55648;DHT22;45266;48.756;9.246;2023-03-01T05:51:30;-0.60;99.90
55648;DHT22;45266;48.756;9.246;2023-03-01T05:52:33;-0.60;99.90
55648;DHT22;45266;48.756;9.246;2023-03-01T05:53:35;-0.60;99.90
55648;DHT22;45266;48.756;9.246;2023-03-01T05:54:37;-0.60;99.90
55648;DHT22;45266;48.756;9.246;2023-03-01T05:55:40;-0.60;99.90
55648;DHT22;45266;48.756;9.246;2023-03-01T05:56:42;-0.60;99.90
55648;DHT22;45266;48.756;9.246;2023-03-01T05:57:44;-0.60;99.90
55648;DHT22;45266;48.756;9.246;2023-03-01T05:58:48;-0.60;99.90
55648;DHT22;45266;48.756;9.246;2023-03-01T05:59:50;-0.60;99.90
55648;DHT22;45266;48.756;9.246;2023-03-01T06:00:52;-0.60;99.90
55648;DHT22;45266;48.756;9.246;2023-03-01T06:01:56;-0.60;99.90
55648;DHT22;45266;48.756;9.246;2023-03-01T06:02:59;-0.60;99.90
55648;DHT22;45266;48.756;9.246;2023-03-01T06:04:01;-0.60;99.90
55648;DHT22;45266;48.756;9.246;2023-03-01T06:05:05;-0.60;99.90
55648;DHT22;45266;48.756;9.246;2023-03-01T06:06:07;-0.60;99.90
55648;DHT22;45266;48.756;9.246;2023-03-01T06:07:09;-0.60;99.90
55648;DHT22;45266;48.756;9.246;2023-03-01T06:08:11;-0.60;99.90
55648;DHT22;45266;48.756;9.246;2023-03-01T06:09:13;-0.50;99.90
55648;DHT22;45266;48.756;9.246;2023-03-01T06:10:17;-0.50;99.90
55648;DHT22;45266;48.756;9.246;2023-03-01T06:11:20;-0.50;99.90
55648;DHT22;45266;48.756;9.246;2023-03-01T06:12:22;-0.50;99.90
55648;DHT22;45266;48.756;9.246;2023-03-01T06:13:24;-0.50;99.90
55648;DHT22;45266;48.756;9.246;2023-03-01T06:14:26;-0.50;99.90
55648;DHT22;45266;48.756;9.246;2023-03-01T06:15:28;-0.50;99.90
55648;DHT22;45266;48.756;9.246;2023-03-01T06:16:30;-0.50;99.90
55648;DHT22;45266;48.756;9.246;2023-03-01T06:17:33;-0.50;99.90
55648;DHT22;45266;48.756;9.246;2023-03-01T06:18:43;-0.50;99.90
55648;DHT22;45266;48.756;9.246;2023-03-01T06:19:46;-0.50;99.90
55648;DHT22;45266;48.756;9.246;2023-03-01T06:20:55;-0.50;99.90
55648;DHT22;45266;48.756;9.246;2023-03-01T06:21:57;-0.50;99.90
55648;DHT22;45266;48.756;9.246;2023-03-01T06:22:58;-0.50;99.90
55648;DHT22;45266;48.756;9.246;2023-03-01T06:24:01;-0.40;99.90
55648;DHT22;45266;48.756;9.246;2023-03-01T06:25:04;-0.40;99.90
55648;DHT22;45266;48.756;9.246;2023-03-01T06:26:08;-0.40;99.90
55648;DHT22;45266;48.756;9.246;2023-03-01T06:27:10;-0.40;99.90
55648;DHT22;45266;48.756;9.246;2023-03-01T06:28:12;-0.40;99.90
55648;DHT22;45266;48.756;9.246;2023-03-01T06:29:13;-0.40;99.90
55648;DHT22;45266;48.756;9.246;2023-03-01T06:30:18;-0.40;99.90
55648;DHT22;45266;48.756;9.246;2023-03-01T06:31:19;-0.40;99.90
55648;DHT22;45266;48.756;9.246;2023-03-01T06:32:21;-0.40;99.90
55648;DHT22;45266;48.756;9.246;2023-03-01T06:33:23;-0.40;99.90
55648;DHT22;45266;48.756;9.246;2023-03-01T06:34:25;-0.40;99.90
55648;DHT22;45266;48.756;9.246;2023-03-01T06:35:27;-0.40;99.90
55648;DHT22;45266;48.756;9.246;2023-03-01T06:36:32;-0.40;99.90
55648;DHT22;45266;48.756;9.246;2023-03-01T06:37:34;-0.40;99.90
55648;DHT22;45266;48.756;9.246;2023-03-01T06:38:36;-0.40;99.90
55648;DHT22;45266;48.756;9.246;2023-03-01T06:39:38;-0.30;99.90
55648;DHT22;45266;48.756;9.246;2023-03-01T06:40:40;-0.30;99.90
55648;DHT22;45266;48.756;9.246;2023-03-01T06:41:43;-0.20;99.90
55648;DHT22;45266;48.756;9.246;2023-03-01T06:42:49;-0.20;99.90
55648;DHT22;45266;48.756;9.246;2023-03-01T06:43:51;-0.20;99.90
55648;DHT22;45266;48.756;9.246;2023-03-01T06:44:53;-0.10;99.90
55648;DHT22;45266;48.756;9.246;2023-03-01T06:45:55;-0.10;99.90
55648;DHT22;45266;48.756;9.246;2023-03-01T06:46:57;-0.10;99.90
55648;DHT22;45266;48.756;9.246;2023-03-01T06:48:06;-0.10;99.90